Time;durP1;ratioP1;P1;durP2;ratioP2;P2;SDS_P1;SDS_P2;PMS_P1;PMS_P2;Temp;Humidity;BMP_temperature;BMP_pressure;BME280_temperature;BME280_humidity;BME280_pressure;Samples;Min_cycle;Max_cycle;Signal;HPM_P1;HPM_P2
2022/12/28 00:00:31;;;;;;;7.63;7.13;;;;;;;10.93;100.00;148788.09;5072596;28;20532;-64
2022/12/28 00:02:58;;;;;;;7.23;6.90;;;;;;;10.90;100.00;148780.53;5072282;28;20192;-64
2022/12/28 00:05:25;;;;;;;7.20;6.90;;;;;;;10.81;100.00;148757.75;5072015;28;20184;-64
2022/12/28 00:07:52;;;;;;;7.47;6.97;;;;;;;10.84;100.00;148766.59;5071892;28;20224;-64
2022/12/28 00:10:19;;;;;;;7.70;7.20;;;;;;;10.60;100.00;148704.66;5071858;28;20189;-65
2022/12/28 00:12:45;;;;;;;7.83;7.40;;;;;;;10.92;100.00;148785.56;5070597;28;20208;-65
2022/12/28 00:15:14;;;;;;;7.80;7.30;;;;;;;10.97;100.00;148798.22;5072032;28;20208;-65
2022/12/28 00:17:41;;;;;;;7.40;7.00;;;;;;;10.97;100.00;148799.47;5071707;28;20191;-64
2022/12/28 00:20:08;;;;;;;8.00;7.50;;;;;;;10.90;100.00;148780.53;5071643;28;20220;-64
2022/12/28 00:22:35;;;;;;;8.10;7.70;;;;;;;10.82;100.00;148761.53;5071652;28;20639;-64
2022/12/28 00:25:02;;;;;;;8.87;8.40;;;;;;;10.89;100.00;148779.25;5071637;28;20188;-64
2022/12/28 00:27:29;;;;;;;7.90;7.50;;;;;;;10.83;100.00;148764.06;5071626;28;20232;-65
2022/12/28 00:29:56;;;;;;;8.03;7.50;;;;;;;10.76;100.00;148746.38;5071669;28;20189;-64
2022/12/28 00:32:24;;;;;;;8.73;8.23;;;;;;;10.73;100.00;148737.53;5071480;28;20200;-64
2022/12/28 00:34:51;;;;;;;8.57;7.73;;;;;;;10.68;100.00;148724.88;5071788;28;20538;-65
2022/12/28 00:37:17;;;;;;;8.57;8.00;;;;;;;10.52;100.00;148685.72;5071909;28;20207;-64
2022/12/28 00:39:44;;;;;;;8.30;7.80;;;;;;;10.50;100.00;148681.91;5071721;28;20189;-64
2022/12/28 00:42:11;;;;;;;8.80;8.30;;;;;;;10.46;100.00;148671.78;5071394;28;20184;-65
2022/12/28 00:44:38;;;;;;;8.57;8.07;;;;;;;10.38;100.00;148651.56;5071843;28;20575;-64
2022/12/28 00:47:05;;;;;;;8.50;8.10;;;;;;;10.29;100.00;148627.56;5071730;28;20195;-64
2022/12/28 00:49:33;;;;;;;9.17;8.60;;;;;;;9.85;100.00;148518.81;5071452;28;20187;-65
2022/12/28 00:52:00;;;;;;;8.77;8.00;;;;;;;9.85;100.00;148518.81;5071471;28;20185;-64
2022/12/28 00:54:27;;;;;;;9.07;8.57;;;;;;;9.59;100.00;148453.13;5071703;28;20582;-65
2022/12/28 00:56:54;;;;;;;8.90;8.50;;;;;;;9.54;100.00;148441.81;5071653;28;20208;-64
2022/12/28 00:59:21;;;;;;;9.23;8.73;;;;;;;9.36;100.00;148395.06;5071234;28;20196;-64
2022/12/28 01:01:48;;;;;;;9.83;9.23;;;;;;;9.28;100.00;148376.13;5071597;28;20555;-64
2022/12/28 01:04:15;;;;;;;10.47;9.83;;;;;;;9.03;100.00;148313.00;5071377;28;20189;-64
2022/12/28 01:06:43;;;;;;;9.53;8.93;;;;;;;9.00;100.00;148306.66;5074154;28;20653;-64
2022/12/28 01:09:10;;;;;;;10.67;10.07;;;;;;;8.96;100.00;148295.31;5075653;28;20568;-64
2022/12/28 01:11:37;;;;;;;9.00;8.60;;;;;;;8.97;100.00;148297.84;5075722;28;20180;-64
2022/12/28 01:14:03;;;;;;;9.70;9.10;;;;;;;8.84;100.00;148265.00;5075176;28;20185;-65
2022/12/28 01:16:32;;;;;;;9.70;9.20;;;;;;;8.74;100.00;148239.81;5075131;28;20225;-64
2022/12/28 01:19:01;;;;;;;8.83;8.43;;;;;;;8.70;100.00;148232.19;5075317;28;20181;-64
2022/12/28 01:21:30;;;;;;;8.83;8.33;;;;;;;8.59;100.00;148203.19;5075293;28;20196;-64
2022/12/28 01:24:00;;;;;;;8.87;8.40;;;;;;;8.49;100.00;148179.19;5075032;28;20193;-64
2022/12/28 01:26:28;;;;;;;9.30;8.50;;;;;;;8.13;100.00;148088.31;5074932;28;20184;-64
2022/12/28 01:28:55;;;;;;;8.33;7.83;;;;;;;8.31;100.00;148132.53;5074876;28;20745;-64
2022/12/28 01:31:22;;;;;;;9.13;8.17;;;;;;;8.28;100.00;148126.16;5075180;28;20523;-64
2022/12/28 01:33:49;;;;;;;8.07;7.67;;;;;;;8.16;100.00;148095.88;5074885;28;20184;-65
2022/12/28 01:36:18;;;;;;;7.83;7.30;;;;;;;8.23;100.00;148113.56;5075095;28;20679;-64
2022/12/28 01:38:45;;;;;;;8.43;8.00;;;;;;;8.24;100.00;148116.06;5074534;28;20191;-65
2022/12/28 01:41:15;;;;;;;8.07;7.67;;;;;;;8.19;100.00;148103.44;5074792;28;20203;-65
2022/12/28 01:43:44;;;;;;;7.40;7.00;;;;;;;8.23;100.00;148114.78;5074695;28;20188;-64
2022/12/28 01:46:15;;;;;;;8.33;7.73;;;;;;;8.30;100.00;148131.25;5074683;28;20184;-65
2022/12/28 01:48:47;;;;;;;7.97;7.47;;;;;;;8.35;100.00;148143.88;5074546;28;20184;-64
2022/12/28 01:51:15;;;;;;;7.17;6.77;;;;;;;8.33;100.00;148138.81;5074516;28;20188;-65
2022/12/28 01:53:42;;;;;;;8.00;7.47;;;;;;;8.30;100.00;148131.25;5074944;28;20208;-65
2022/12/28 01:56:09;;;;;;;6.53;6.13;;;;;;;8.08;100.00;148075.69;5073384;28;20208;-64
2022/12/28 01:58:38;;;;;;;6.33;5.87;;;;;;;8.20;100.00;148105.97;5074791;28;20196;-65
2022/12/28 02:01:05;;;;;;;6.43;6.03;;;;;;;8.24;100.00;148116.06;5074622;28;20189;-65
2022/12/28 02:03:34;;;;;;;5.60;5.30;;;;;;;8.28;100.00;148127.41;5074570;28;20192;-65
2022/12/28 02:06:06;;;;;;;5.03;4.73;;;;;;;8.42;100.00;148160.28;5074420;28;20199;-66
2022/12/28 02:08:40;;;;;;;5.60;5.20;;;;;;;8.40;100.00;148155.25;5074546;28;20184;-65
2022/12/28 02:11:09;;;;;;;5.43;5.13;;;;;;;8.43;100.00;148164.06;5074492;28;20612;-65
2022/12/28 02:13:39;;;;;;;5.90;5.50;;;;;;;8.48;100.00;148176.69;5074470;28;20536;-64
2022/12/28 02:16:07;;;;;;;5.83;5.53;;;;;;;8.48;100.00;148176.69;5074025;28;20209;-65
2022/12/28 02:18:34;;;;;;;5.53;5.33;;;;;;;8.33;100.00;148138.81;5072656;28;20296;-65
2022/12/28 02:21:29;;;;;;;5.37;5.17;;;;;;;8.33;100.00;148138.81;5074192;28;20627;-66
2022/12/28 02:24:29;;;;;;;5.40;5.10;;;;;;;8.36;100.00;148145.16;5074220;28;20562;-65
2022/12/28 02:27:01;;;;;;;4.80;4.50;;;;;;;8.31;100.00;148132.53;5073956;28;20244;-66
2022/12/28 02:30:07;;;;;;;5.03;4.83;;;;;;;8.29;100.00;148128.72;5073777;28;20192;-64
2022/12/28 02:32:50;;;;;;;4.97;4.67;;;;;;;8.27;100.00;148124.88;5070308;28;20638;-65
2022/12/28 02:35:23;;;;;;;4.73;4.53;;;;;;;8.32;100.00;148136.28;5073784;28;20189;-64
2022/12/28 02:37:56;;;;;;;4.90;4.70;;;;;;;8.26;100.00;148121.13;5074077;28;20639;-66
2022/12/28 02:40:27;;;;;;;4.53;4.33;;;;;;;8.18;100.00;148100.94;5073960;28;20635;-65
2022/12/28 02:42:55;;;;;;;4.50;4.27;;;;;;;8.09;100.00;148079.50;5073572;28;20562;-65
2022/12/28 02:51:20;;;;;;;4.30;4.00;;;;;;;7.73;100.00;147989.91;5073722;28;20552;-64
2022/12/28 02:54:04;;;;;;;4.30;4.10;;;;;;;7.70;100.00;147982.38;5073586;28;20196;-64
2022/12/28 02:56:37;;;;;;;4.57;4.23;;;;;;;7.74;100.00;147992.44;5073917;28;20544;-64
2022/12/28 02:59:28;;;;;;;5.50;4.63;;;;;;;7.56;100.00;147947.03;5073896;28;20177;-65
2022/12/28 03:02:19;;;;;;;4.23;4.03;;;;;;;7.67;100.00;147974.81;5074294;28;20185;-65
2022/12/28 03:05:05;;;;;;;4.00;3.80;;;;;;;7.75;100.00;147993.72;5071109;28;20200;-65
2022/12/28 03:10:36;;;;;;;4.40;4.20;;;;;;;7.46;100.00;147920.59;5077551;28;20265;-66
2022/12/28 03:13:41;;;;;;;4.40;3.67;;;;;;;7.67;100.00;147974.81;5075613;28;20184;-66
2022/12/28 03:16:03;;;;;;;6.93;3.30;;;;;;;7.78;100.00;148001.28;5076893;28;20293;-65
2022/12/28 03:32:25;;;;;;;3.30;3.10;;;;;;;7.88;100.00;148025.25;5073100;28;20202;-66
2022/12/28 03:34:52;;;;;;;3.33;2.90;;;;;;;7.68;100.00;147976.09;5073029;28;20662;-63
2022/12/28 03:37:25;;;;;;;3.13;2.93;;;;;;;7.94;100.00;148040.34;5072723;28;20251;-65
2022/12/28 03:39:58;;;;;;;3.10;3.00;;;;;;;7.88;100.00;148026.50;5072339;28;20250;-65
2022/12/28 03:45:19;;;;;;;2.90;2.50;;;;;;;7.70;100.00;147981.09;5072253;28;20260;-64
2022/12/28 03:47:49;;;;;;;2.87;2.67;;;;;;;7.17;100.00;147848.75;5072239;28;20500;-64
2022/12/28 03:50:17;;;;;;;2.87;2.57;;;;;;;7.24;100.00;147866.38;5072319;28;20197;-64
2022/12/28 03:52:45;;;;;;;3.20;3.07;;;;;;;7.37;100.00;147899.16;5072103;28;20189;-64
2022/12/28 03:55:14;;;;;;;3.13;2.57;;;;;;;7.48;100.00;147926.88;5072464;28;20192;-64
2022/12/28 03:57:41;;;;;;;2.90;2.40;;;;;;;7.50;100.00;147931.94;5072416;28;20208;-64
2022/12/28 04:00:10;;;;;;;3.00;2.80;;;;;;;7.39;100.00;147904.19;5072002;28;20195;-64
2022/12/28 04:02:37;;;;;;;3.73;3.10;;;;;;;7.19;100.00;147853.75;5072176;28;20227;-64
2022/12/28 04:05:05;;;;;;;3.73;2.80;;;;;;;7.39;100.00;147904.19;5071930;28;20199;-64
2022/12/28 04:07:32;;;;;;;3.60;3.40;;;;;;;7.38;100.00;147900.41;5072167;28;20200;-64
2022/12/28 04:10:00;;;;;;;3.03;2.83;;;;;;;7.32;100.00;147886.53;5072399;28;20196;-65
2022/12/28 04:12:27;;;;;;;5.67;2.50;;;;;;;7.32;100.00;147886.53;5071793;28;20196;-65
2022/12/28 04:14:54;;;;;;;3.07;2.87;;;;;;;7.20;100.00;147856.28;5072071;28;20203;-65
2022/12/28 04:17:22;;;;;;;3.20;3.00;;;;;;;7.17;100.00;147848.75;5071857;28;20216;-64
2022/12/28 04:19:49;;;;;;;2.47;2.27;;;;;;;7.15;100.00;147843.69;5071706;28;20185;-64
2022/12/28 04:22:15;;;;;;;3.67;2.40;;;;;;;7.06;100.00;147822.25;5071401;28;20185;-65
2022/12/28 04:24:42;;;;;;;2.73;2.60;;;;;;;6.80;100.00;147757.97;5071571;28;20196;-64
2022/12/28 04:27:10;;;;;;;2.80;2.60;;;;;;;6.88;100.00;147778.13;5071953;28;20607;-64
2022/12/28 04:29:37;;;;;;;3.03;2.73;;;;;;;6.98;100.00;147800.81;5071665;28;20189;-64
2022/12/28 04:32:04;;;;;;;2.60;2.50;;;;;;;6.73;100.00;147740.34;5071958;28;20204;-64
2022/12/28 04:34:31;;;;;;;2.33;2.20;;;;;;;6.77;100.00;147750.44;5071790;28;20674;-64
2022/12/28 04:36:58;;;;;;;1.70;1.60;;;;;;;6.84;100.00;147768.06;5072003;28;20224;-64
2022/12/28 04:39:25;;;;;;;2.10;2.00;;;;;;;6.87;100.00;147775.59;5071703;28;20188;-65
2022/12/28 04:41:52;;;;;;;1.93;1.67;;;;;;;6.88;100.00;147776.88;5071005;28;20203;-64
2022/12/28 04:44:20;;;;;;;2.73;2.53;;;;;;;7.00;100.00;147807.09;5071575;28;20188;-66
2022/12/28 04:46:47;;;;;;;2.43;2.23;;;;;;;7.08;100.00;147826.03;5071377;28;20185;-64
2022/12/28 04:49:14;;;;;;;1.90;1.80;;;;;;;6.99;100.00;147803.34;5071832;28;20639;-64
2022/12/28 04:51:41;;;;;;;2.20;1.90;;;;;;;7.02;100.00;147810.91;5071956;28;20715;-64
2022/12/28 04:54:11;;;;;;;2.77;2.37;;;;;;;6.72;100.00;147737.81;5071532;28;20180;-64
2022/12/28 04:56:38;;;;;;;2.40;2.27;;;;;;;6.84;100.00;147766.78;5071600;28;20236;-65
2022/12/28 04:59:05;;;;;;;2.33;1.97;;;;;;;6.97;100.00;147798.28;5071182;28;20184;-65
2022/12/28 05:01:33;;;;;;;2.07;1.93;;;;;;;6.69;100.00;147729.00;5071273;28;20188;-65
2022/12/28 05:04:00;;;;;;;2.80;2.27;;;;;;;6.74;100.00;147741.63;5071286;28;20189;-65
2022/12/28 05:06:28;;;;;;;3.50;2.80;;;;;;;6.95;100.00;147794.53;5071135;28;20187;-64
2022/12/28 05:08:55;;;;;;;3.10;2.00;;;;;;;6.93;100.00;147789.47;5071272;28;20184;-65
2022/12/28 05:11:24;;;;;;;4.70;2.10;;;;;;;6.83;100.00;147765.50;5071595;28;20189;-65
2022/12/28 05:13:51;;;;;;;2.00;1.80;;;;;;;6.86;100.00;147771.84;5071099;28;20689;-66
2022/12/28 05:16:21;;;;;;;3.27;2.30;;;;;;;6.59;100.00;147705.06;5071344;28;20204;-64
2022/12/28 05:18:49;;;;;;;3.70;2.00;;;;;;;6.78;100.00;147752.97;5071301;28;20533;-64
2022/12/28 05:21:18;;;;;;;2.27;2.17;;;;;;;6.64;100.00;147717.66;5071074;28;20270;-64
2022/12/28 05:23:45;;;;;;;2.80;2.60;;;;;;;6.71;100.00;147734.00;5071156;28;20185;-64
2022/12/28 05:26:14;;;;;;;4.87;2.17;;;;;;;6.82;100.00;147761.78;5071435;28;20560;-65
2022/12/28 05:28:41;;;;;;;1.97;1.83;;;;;;;6.27;100.00;147624.44;5071001;28;20232;-65
2022/12/28 05:31:12;;;;;;;2.57;2.37;;;;;;;6.59;100.00;147703.78;5070967;28;20211;-65
2022/12/28 05:33:39;;;;;;;2.67;2.37;;;;;;;6.59;100.00;147705.06;5071274;28;20565;-65
2022/12/28 05:36:09;;;;;;;2.43;2.33;;;;;;;6.65;100.00;147718.94;5071259;28;20200;-64
2022/12/28 05:38:38;;;;;;;3.83;2.07;;;;;;;6.76;100.00;147746.63;5071229;28;20219;-64
2022/12/28 05:41:06;;;;;;;2.50;1.63;;;;;;;6.72;100.00;147736.56;5070917;28;20280;-65
2022/12/28 05:43:33;;;;;;;5.13;2.00;;;;;;;6.76;100.00;147747.91;5070833;28;20687;-64
2022/12/28 05:46:02;;;;;;;5.53;2.10;;;;;;;6.78;100.00;147752.97;5070865;28;20185;-64
2022/12/28 05:48:31;;;;;;;3.73;1.83;;;;;;;6.72;100.00;147736.56;5071185;28;20238;-64
2022/12/28 05:51:00;;;;;;;2.07;1.87;;;;;;;6.72;100.00;147736.56;5070740;28;20250;-65
2022/12/28 05:53:29;;;;;;;1.67;1.57;;;;;;;6.46;100.00;147672.28;5074046;28;20311;-64
2022/12/28 05:56:01;;;;;;;3.07;2.03;;;;;;;6.67;100.00;147725.22;5074809;28;20541;-65
2022/12/28 05:58:28;;;;;;;2.00;1.90;;;;;;;6.59;100.00;147703.78;5074146;28;20200;-64
2022/12/28 06:00:55;;;;;;;3.37;1.87;;;;;;;6.67;100.00;147725.22;5074516;28;20193;-65
2022/12/28 06:03:21;;;;;;;2.67;2.13;;;;;;;6.79;100.00;147755.44;5074640;28;20193;-64
2022/12/28 06:05:49;;;;;;;2.43;2.27;;;;;;;6.92;100.00;147785.72;5074280;28;20189;-64
2022/12/28 06:08:16;;;;;;;2.03;1.50;;;;;;;6.84;100.00;147768.06;5074179;28;20193;-64
2022/12/28 06:10:44;;;;;;;1.93;1.80;;;;;;;6.92;100.00;147785.72;5074515;28;20533;-64
2022/12/28 06:13:11;;;;;;;3.60;2.30;;;;;;;6.75;100.00;147744.09;5074159;28;20196;-64
2022/12/28 06:15:37;;;;;;;2.40;2.30;;;;;;;6.94;100.00;147792.00;5074224;28;20185;-64
2022/12/28 06:18:04;;;;;;;2.57;2.10;;;;;;;6.94;100.00;147792.00;5073908;28;20304;-64
2022/12/28 06:20:31;;;;;;;7.73;2.53;;;;;;;7.02;100.00;147810.91;5073826;28;20180;-65
2022/12/28 06:22:58;;;;;;;3.20;2.10;;;;;;;7.21;100.00;147860.03;5074490;28;20631;-64
2022/12/28 06:25:25;;;;;;;7.63;2.70;;;;;;;7.29;100.00;147879.00;5074028;28;20199;-64
2022/12/28 06:27:53;;;;;;;2.40;2.20;;;;;;;7.46;100.00;147921.84;5074260;28;20602;-64
2022/12/28 06:30:20;;;;;;;4.63;2.23;;;;;;;7.57;100.00;147948.31;5074071;28;20541;-65
2022/12/28 06:32:47;;;;;;;8.30;3.03;;;;;;;7.72;100.00;147987.38;5073795;28;20193;-64
2022/12/28 06:35:14;;;;;;;4.87;2.30;;;;;;;7.78;100.00;148001.28;5072445;28;20189;-62
2022/12/28 06:37:41;;;;;;;3.73;2.00;;;;;;;7.84;100.00;148015.16;5073494;28;20295;-65
2022/12/28 06:40:08;;;;;;;4.80;2.80;;;;;;;7.77;100.00;148000.00;5073734;28;20200;-65
2022/12/28 06:42:35;;;;;;;10.77;3.07;;;;;;;8.01;100.00;148059.31;5074019;28;20185;-64
2022/12/28 06:45:04;;;;;;;3.50;2.57;;;;;;;8.16;100.00;148095.88;5073751;28;20250;-66
2022/12/28 06:47:32;;;;;;;7.33;4.07;;;;;;;8.06;100.00;148070.69;5073892;28;20181;-65
2022/12/28 06:49:59;;;;;;;2.90;2.60;;;;;;;7.95;100.00;148042.91;5073758;28;20606;-64
2022/12/28 06:52:26;;;;;;;2.67;2.47;;;;;;;7.73;100.00;147989.91;5073519;28;20200;-66
2022/12/28 06:54:53;;;;;;;10.17;2.90;;;;;;;7.68;100.00;147976.09;5073661;28;20489;-64
2022/12/28 06:57:19;;;;;;;2.97;2.60;;;;;;;7.65;100.00;147968.47;5073326;28;20210;-65
2022/12/28 06:59:46;;;;;;;9.80;2.60;;;;;;;7.62;100.00;147962.19;5073551;28;20184;-64
2022/12/28 07:02:15;;;;;;;3.40;2.80;;;;;;;7.59;100.00;147954.66;5073261;28;20181;-64
2022/12/28 07:04:41;;;;;;;3.93;2.07;;;;;;;7.53;100.00;147938.22;5071238;28;20259;-64
2022/12/28 07:07:09;;;;;;;2.80;2.60;;;;;;;7.39;100.00;147902.91;5073169;28;20192;-66
2022/12/28 07:09:36;;;;;;;2.90;2.33;;;;;;;7.26;100.00;147872.66;5073560;28;20196;-66
2022/12/28 07:12:03;;;;;;;3.60;2.33;;;;;;;7.28;100.00;147876.44;5073322;28;20569;-65
2022/12/28 07:14:31;;;;;;;2.73;2.17;;;;;;;7.38;100.00;147901.69;5073007;28;20188;-64
2022/12/28 07:16:57;;;;;;;2.50;2.40;;;;;;;7.40;100.00;147906.72;5072954;28;20244;-65
2022/12/28 07:19:26;;;;;;;2.43;2.17;;;;;;;7.43;100.00;147914.25;5073552;28;20627;-64
2022/12/28 07:21:52;;;;;;;2.97;2.77;;;;;;;7.59;100.00;147954.66;5073424;28;20186;-64
2022/12/28 07:24:19;;;;;;;2.63;2.27;;;;;;;7.87;100.00;148022.72;5073172;28;20711;-65
2022/12/28 07:26:48;;;;;;;2.80;2.60;;;;;;;8.06;100.00;148070.69;5072855;28;20273;-65
2022/12/28 07:29:14;;;;;;;2.93;2.60;;;;;;;8.09;100.00;148078.22;5073216;28;20840;-65
2022/12/28 07:31:41;;;;;;;5.97;2.10;;;;;;;8.03;100.00;148063.06;5072819;28;20215;-64
2022/12/28 07:34:08;;;;;;;2.37;2.23;;;;;;;8.02;100.00;148061.81;5073039;28;20209;-65
2022/12/28 07:36:37;;;;;;;2.50;2.30;;;;;;;8.02;100.00;148060.59;5072935;28;20196;-64
2022/12/28 07:39:04;;;;;;;3.63;2.17;;;;;;;8.18;100.00;148100.94;5071395;28;20209;-65
2022/12/28 07:41:34;;;;;;;2.40;2.20;;;;;;;8.08;100.00;148075.69;5072372;28;20188;-65
2022/12/28 07:44:02;;;;;;;4.27;2.07;;;;;;;8.13;100.00;148089.59;5072545;28;20195;-65
2022/12/28 07:46:30;;;;;;;3.13;2.33;;;;;;;8.27;100.00;148123.66;5072345;28;20181;-64
2022/12/28 07:48:57;;;;;;;4.30;2.13;;;;;;;8.56;100.00;148196.88;5072284;28;20185;-65
2022/12/28 07:51:27;;;;;;;2.20;1.80;;;;;;;8.55;100.00;148194.34;5072414;28;20181;-65
2022/12/28 07:53:56;;;;;;;3.40;2.30;;;;;;;8.87;100.00;148272.63;5072558;28;20188;-64
2022/12/28 07:56:25;;;;;;;6.30;2.40;;;;;;;9.92;100.00;148535.28;5072297;28;20291;-65
2022/12/28 07:58:54;;;;;;;3.63;3.03;;;;;;;11.27;89.65;148872.81;5072128;28;20212;-66
2022/12/28 08:01:23;;;;;;;5.17;2.60;;;;;;;12.48;79.11;149175.25;5072299;28;20184;-66
2022/12/28 08:03:53;;;;;;;4.33;1.90;;;;;;;13.26;71.38;149371.63;5071939;28;20192;-65
2022/12/28 08:06:22;;;;;;;3.57;3.20;;;;;;;14.38;65.67;149651.75;5072309;28;20184;-66
2022/12/28 08:08:51;;;;;;;3.93;3.73;;;;;;;15.65;61.34;149971.44;5072278;28;20195;-65
2022/12/28 08:11:22;;;;;;;3.57;3.30;;;;;;;16.36;56.89;150149.13;5072229;28;20185;-65
2022/12/28 08:13:51;;;;;;;9.03;3.93;;;;;;;16.43;54.80;150166.91;5071852;28;20188;-65
2022/12/28 08:16:20;;;;;;;6.47;3.63;;;;;;;15.64;55.26;149967.63;5071822;28;20184;-64
2022/12/28 08:18:48;;;;;;;7.43;3.67;;;;;;;14.79;57.05;149755.72;5071933;28;20713;-64
2022/12/28 08:21:17;;;;;;;7.70;3.03;;;;;;;14.49;57.93;149680.88;5072008;28;20199;-65
2022/12/28 08:23:44;;;;;;;9.30;4.17;;;;;;;14.25;59.38;149618.72;5071816;28;20181;-65
2022/12/28 08:26:13;;;;;;;4.83;3.13;;;;;;;14.25;58.92;149618.72;5072055;28;20594;-64
2022/12/28 08:28:43;;;;;;;7.07;3.73;;;;;;;14.41;57.31;149659.34;5071488;28;20327;-64
2022/12/28 08:31:12;;;;;;;5.00;3.43;;;;;;;14.86;57.29;149773.44;5071614;28;20198;-64
2022/12/28 08:33:38;;;;;;;24.10;5.10;;;;;;;14.89;56.14;149781.09;5072035;28;20598;-65
2022/12/28 08:36:08;;;;;;;25.87;5.90;;;;;;;14.80;57.39;149756.97;5071847;28;20291;-64
2022/12/28 08:38:35;;;;;;;23.37;4.97;;;;;;;14.10;58.47;149581.94;5071636;28;20587;-63
2022/12/28 08:41:05;;;;;;;7.27;3.97;;;;;;;14.26;56.90;149621.28;5071553;28;20571;-64
2022/12/28 08:43:34;;;;;;;4.47;4.07;;;;;;;14.90;54.88;149783.59;5071790;28;20185;-64
2022/12/28 08:46:05;;;;;;;4.83;3.83;;;;;;;14.21;55.70;149609.88;5070193;28;20246;-64
2022/12/28 08:48:33;;;;;;;12.47;4.53;;;;;;;13.78;56.27;149502.13;5071821;28;20589;-64
2022/12/28 08:51:02;;;;;;;20.30;5.10;;;;;;;13.48;57.35;149427.38;5071772;28;20189;-65
2022/12/28 08:53:29;;;;;;;19.83;5.30;;;;;;;13.26;58.06;149372.88;5071641;28;20188;-64
2022/12/28 08:55:56;;;;;;;12.07;4.57;;;;;;;13.31;58.07;149383.00;5071391;28;20197;-64
2022/12/28 08:58:23;;;;;;;11.23;4.43;;;;;;;14.63;56.51;149716.41;5071358;28;20204;-64
2022/12/28 09:00:50;;;;;;;8.97;3.60;;;;;;;17.07;51.09;150326.97;5071885;28;20639;-64
2022/12/28 09:03:18;;;;;;;7.13;3.87;;;;;;;17.15;49.54;150348.56;5071577;28;20218;-64
2022/12/28 09:05:45;;;;;;;13.97;3.77;;;;;;;16.60;49.58;150210.13;5070071;28;20192;-64
2022/12/28 09:08:12;;;;;;;9.20;3.33;;;;;;;16.29;48.66;150132.66;5071554;28;20181;-64
2022/12/28 09:10:38;;;;;;;2.13;1.40;;;;;;;14.73;47.31;149740.47;5071368;28;20188;-64
2022/12/28 09:13:05;;;;;;;1.40;1.40;;;;;;;14.28;47.63;149627.59;5071221;28;20521;-64
2022/12/28 09:15:32;;;;;;;3.60;1.40;;;;;;;13.75;47.58;149494.47;5071215;28;20185;-64
2022/12/28 09:17:59;;;;;;;1.77;1.67;;;;;;;13.91;47.16;149533.81;5069977;28;20205;-64
2022/12/28 09:20:27;;;;;;;9.57;3.50;;;;;;;13.47;54.25;149423.53;5071771;28;20200;-64
2022/12/28 09:22:54;;;;;;;3.00;2.80;;;;;;;14.41;53.07;149660.59;5071007;28;20583;-64
2022/12/28 09:25:21;;;;;;;3.23;2.90;;;;;;;15.54;49.82;149943.50;5071100;28;20195;-63
2022/12/28 09:27:49;;;;;;;6.00;3.43;;;;;;;15.63;50.43;149965.06;5073649;28;20630;-64
2022/12/28 09:30:16;;;;;;;5.47;2.53;;;;;;;14.89;50.32;149779.81;5074970;28;20181;-64
2022/12/28 09:32:42;;;;;;;2.90;2.70;;;;;;;14.44;52.44;149668.19;5074985;28;20199;-64
2022/12/28 09:35:09;;;;;;;8.50;2.33;;;;;;;14.44;50.88;149666.94;5074928;28;20601;-63
2022/12/28 09:37:37;;;;;;;4.40;2.30;;;;;;;14.01;50.70;149560.41;5075402;28;20594;-63
2022/12/28 09:40:06;;;;;;;2.47;1.97;;;;;;;14.02;51.07;149562.94;5075402;28;20189;-63
2022/12/28 09:42:38;;;;;;;8.77;2.40;;;;;;;13.42;52.09;149410.88;5074916;28;20181;-63
2022/12/28 09:45:09;;;;;;;18.17;2.67;;;;;;;13.46;52.36;149422.28;5075336;28;20562;-65
2022/12/28 09:47:39;;;;;;;3.50;2.67;;;;;;;13.43;53.34;149413.41;5075554;28;20262;-64
2022/12/28 09:50:28;;;;;;;5.20;2.20;;;;;;;12.91;53.64;149284.16;5075268;28;20181;-65
2022/12/28 09:53:14;;;;;;;2.33;2.13;;;;;;;12.62;54.24;149210.72;5075599;28;20283;-63
2022/12/28 09:55:43;;;;;;;3.33;2.23;;;;;;;12.26;58.39;149122.09;5076021;28;20189;-66
2022/12/28 09:58:15;;;;;;;2.97;1.67;;;;;;;12.06;60.84;149071.47;5076531;28;20215;-65
2022/12/28 10:00:45;;;;;;;3.27;2.20;;;;;;;12.51;61.17;149182.88;5077610;28;20185;-65
2022/12/28 10:03:17;;;;;;;3.63;2.27;;;;;;;12.44;58.50;149166.41;5077591;28;20614;-64
2022/12/28 10:05:45;;;;;;;3.50;1.93;;;;;;;12.69;59.81;149228.44;5077678;28;20271;-64
2022/12/28 10:08:17;;;;;;;3.33;2.10;;;;;;;14.10;57.13;149583.22;5079274;28;20180;-64
2022/12/28 10:10:44;;;;;;;5.17;2.20;;;;;;;16.06;50.51;150072.94;5081011;28;20220;-66
2022/12/28 10:13:16;;;;;;;2.03;1.70;;;;;;;16.24;44.57;150118.66;5080395;28;20279;-65
2022/12/28 10:15:43;;;;;;;2.13;1.93;;;;;;;15.45;44.56;149920.59;5078788;28;20205;-65
2022/12/28 10:18:13;;;;;;;1.90;1.80;;;;;;;15.63;44.76;149966.34;5077951;28;20681;-64
2022/12/28 10:20:41;;;;;;;2.30;2.20;;;;;;;16.15;43.78;150097.09;5077442;28;20265;-66
2022/12/28 10:23:12;;;;;;;1.70;1.60;;;;;;;15.78;42.26;150004.44;5075998;28;20555;-64
2022/12/28 10:25:41;;;;;;;1.70;1.57;;;;;;;14.59;43.14;149705.00;5075756;28;20605;-64
2022/12/28 10:28:09;;;;;;;2.40;1.87;;;;;;;13.77;45.10;149498.31;5074372;28;20319;-64
2022/12/28 10:30:46;;;;;;;1.67;1.50;;;;;;;13.60;45.90;149456.50;5075090;28;20193;-64
2022/12/28 10:33:17;;;;;;;1.90;1.80;;;;;;;12.88;48.75;149275.31;5074761;28;20197;-65
2022/12/28 10:35:51;;;;;;;2.40;1.60;;;;;;;12.76;49.45;149246.19;5074590;28;20200;-64
2022/12/28 10:38:23;;;;;;;1.90;1.80;;;;;;;12.90;49.18;149281.63;5073270;28;20208;-64
2022/12/28 10:41:03;;;;;;;1.60;1.50;;;;;;;12.85;49.12;149267.72;5074334;28;20184;-64
2022/12/28 10:43:33;;;;;;;2.47;2.20;;;;;;;12.21;50.09;149108.22;5074424;28;20220;-64
2022/12/28 10:46:01;;;;;;;2.83;2.57;;;;;;;11.87;51.31;149024.69;5074523;28;20226;-64
2022/12/28 10:48:31;;;;;;;1.60;1.50;;;;;;;11.83;50.45;149014.56;5073851;28;20188;-64
2022/12/28 10:51:01;;;;;;;3.13;1.93;;;;;;;11.96;50.37;149046.19;5074108;28;20192;-65
2022/12/28 10:53:31;;;;;;;2.10;1.90;;;;;;;12.47;48.88;149174.03;5074166;28;20208;-64
2022/12/28 10:56:06;;;;;;;2.03;1.93;;;;;;;12.28;49.92;149125.91;5073968;28;20185;-65
2022/12/28 10:58:34;;;;;;;1.60;1.50;;;;;;;12.39;49.61;149153.75;5073579;28;20283;-64
2022/12/28 11:01:05;;;;;;;1.60;1.50;;;;;;;12.91;48.90;149284.16;5073891;28;20185;-65
2022/12/28 11:03:34;;;;;;;2.43;1.97;;;;;;;12.94;49.16;149291.78;5073660;28;20200;-64
2022/12/28 11:06:13;;;;;;;1.73;1.63;;;;;;;13.84;46.92;149517.31;5073288;28;20292;-63
2022/12/28 11:08:42;;;;;;;2.87;2.03;;;;;;;14.10;45.88;149581.94;5073381;28;20184;-63
2022/12/28 11:11:20;;;;;;;1.70;1.57;;;;;;;15.45;42.58;149920.59;5073366;28;20193;-63
2022/12/28 11:13:52;;;;;;;1.90;1.80;;;;;;;15.38;41.58;149904.13;5073298;28;20185;-63
2022/12/28 11:16:19;;;;;;;2.53;2.33;;;;;;;14.56;42.80;149698.63;5073137;28;20196;-64
2022/12/28 11:18:47;;;;;;;2.17;1.90;;;;;;;14.17;43.60;149600.94;5073267;28;20303;-64
2022/12/28 11:21:20;;;;;;;2.17;2.00;;;;;;;13.59;44.44;149453.94;5072753;28;20191;-64
2022/12/28 11:23:47;;;;;;;2.10;2.00;;;;;;;13.75;45.05;149494.47;5072816;28;20192;-64
2022/12/28 11:26:14;;;;;;;1.60;1.50;;;;;;;14.39;43.40;149654.25;5072655;28;20226;-63
2022/12/28 11:28:45;;;;;;;4.30;1.50;;;;;;;14.41;43.46;149659.34;5072758;28;20229;-66
2022/12/28 11:31:21;;;;;;;1.40;1.30;;;;;;;14.49;43.41;149679.63;5072882;28;20189;-64
2022/12/28 11:33:50;;;;;;;4.27;1.20;;;;;;;14.88;41.29;149778.53;5072713;28;20185;-64
2022/12/28 11:36:19;;;;;;;8.30;2.47;;;;;;;15.24;41.53;149867.31;5072875;28;20188;-65
2022/12/28 11:38:47;;;;;;;4.27;1.50;;;;;;;14.50;40.97;149682.16;5073093;28;20208;-66
2022/12/28 11:41:42;;;;;;;7.23;1.87;;;;;;;13.17;43.86;149350.06;5072912;28;20555;-64
2022/12/28 11:44:20;;;;;;;1.40;1.30;;;;;;;12.30;45.60;149132.25;5072769;28;20671;-64
2022/12/28 11:46:59;;;;;;;5.97;1.67;;;;;;;12.05;47.64;149067.72;5072509;28;20192;-64
2022/12/28 11:49:36;;;;;;;5.77;2.07;;;;;;;11.58;47.95;148951.25;5071892;28;20221;-64
2022/12/28 11:52:35;;;;;;;4.37;1.67;;;;;;;11.15;47.88;148842.47;5072677;28;20634;-64
2022/12/28 11:55:41;;;;;;;4.00;1.73;;;;;;;10.69;47.65;148728.69;5072157;28;20188;-64
2022/12/28 11:58:53;;;;;;;2.00;1.90;;;;;;;10.56;48.58;148694.56;5072072;28;20192;-64
2022/12/28 12:01:50;;;;;;;2.43;1.37;;;;;;;10.28;50.38;148626.28;5072158;28;20184;-64